Time;durP1;ratioP1;P1;durP2;ratioP2;P2;SDS_P1;SDS_P2;PMS_P1;PMS_P2;Temp;Humidity;BMP_temperature;BMP_pressure;BME280_temperature;BME280_humidity;BME280_pressure;Samples;Min_cycle;Max_cycle;Signal;HPM_P1;HPM_P2
2021/07/08 00:00:12;;;;;;;1.63;0.90;;;24.80;99.90;;;;;;5040430;28;20292;-96
2021/07/08 00:02:44;;;;;;;2.33;1.00;;;24.60;99.90;;;;;;5019039;28;20209;-94
2021/07/08 00:05:19;;;;;;;1.80;0.80;;;24.70;99.90;;;;;;5035071;28;20587;-96
2021/07/08 00:07:53;;;;;;;0.90;0.80;;;24.30;99.90;;;;;;5035208;28;20324;-95
2021/07/08 00:10:28;;;;;;;1.30;0.70;;;23.90;99.90;;;;;;5035130;28;20204;-94
2021/07/08 00:13:01;;;;;;;1.43;0.90;;;23.90;99.90;;;;;;5039318;28;20653;-95
2021/07/08 00:15:33;;;;;;;0.80;0.80;;;24.50;99.90;;;;;;5055529;28;20223;-95
2021/07/08 00:18:09;;;;;;;1.30;0.83;;;24.80;99.90;;;;;;5055473;28;20205;-94
2021/07/08 00:20:41;;;;;;;1.00;0.80;;;25.20;99.90;;;;;;5055266;28;20212;-96
2021/07/08 00:23:16;;;;;;;1.10;0.70;;;25.40;99.90;;;;;;5056839;28;20234;-96
2021/07/08 00:25:49;;;;;;;0.93;0.73;;;24.90;99.90;;;;;;5070300;28;20247;-95
2021/07/08 00:28:20;;;;;;;1.17;0.80;;;24.70;99.90;;;;;;5074385;28;20243;-96
2021/07/08 00:30:55;;;;;;;0.67;0.60;;;24.30;99.90;;;;;;5061697;28;20208;-96
2021/07/08 00:33:26;;;;;;;0.70;0.70;;;24.30;99.90;;;;;;5045905;28;20304;-96
2021/07/08 00:35:57;;;;;;;1.07;0.70;;;24.40;99.90;;;;;;5041287;28;20717;-95
2021/07/08 00:38:30;;;;;;;1.37;0.77;;;24.80;99.90;;;;;;5036279;28;20826;-94
2021/07/08 00:41:01;;;;;;;1.10;0.70;;;24.50;99.90;;;;;;5023667;28;20216;-95
2021/07/08 00:43:34;;;;;;;1.43;0.90;;;24.70;99.90;;;;;;5056113;28;20212;-94
2021/07/08 00:46:06;;;;;;;1.90;0.67;;;24.80;99.90;;;;;;5055164;28;20574;-94
2021/07/08 00:48:38;;;;;;;1.33;0.80;;;25.00;99.90;;;;;;5053722;28;20212;-94
2021/07/08 00:51:09;;;;;;;1.60;0.70;;;25.20;99.90;;;;;;5055407;28;20262;-94
2021/07/08 00:53:43;;;;;;;1.20;0.70;;;25.00;99.90;;;;;;5056399;28;20219;-93
2021/07/08 00:56:15;;;;;;;1.83;0.77;;;25.00;99.90;;;;;;5063804;28;20235;-94
2021/07/08 00:59:01;;;;;;;2.13;0.80;;;25.30;99.90;;;;;;5066228;28;20237;-94
2021/07/08 01:01:33;;;;;;;0.73;0.70;;;25.40;99.90;;;;;;5060981;28;20268;-95
2021/07/08 01:04:05;;;;;;;0.80;0.60;;;25.90;99.90;;;;;;5061321;28;20266;-95
2021/07/08 01:06:40;;;;;;;1.00;0.60;;;26.50;99.90;;;;;;5060388;28;20240;-96
2021/07/08 01:09:13;;;;;;;4.03;0.70;;;26.70;99.90;;;;;;5063494;28;20230;-95
2021/07/08 01:11:45;;;;;;;0.97;0.70;;;26.80;99.90;;;;;;5062700;28;20276;-94
2021/07/08 01:14:16;;;;;;;0.97;0.60;;;27.40;99.90;;;;;;5059289;28;20283;-94
2021/07/08 01:16:48;;;;;;;1.57;0.50;;;27.30;99.90;;;;;;5057598;28;20246;-94
2021/07/08 01:19:19;;;;;;;1.97;0.80;;;27.00;99.90;;;;;;5044459;28;20232;-95
2021/07/08 01:21:52;;;;;;;2.10;0.70;;;26.60;99.90;;;;;;5055892;28;20661;-95
2021/07/08 01:24:23;;;;;;;0.80;0.60;;;26.90;99.90;;;;;;5057265;28;20708;-94
2021/07/08 01:26:55;;;;;;;1.77;0.90;;;26.90;99.90;;;;;;5042122;28;20282;-95
2021/07/08 01:29:28;;;;;;;1.27;0.80;;;27.30;99.90;;;;;;5045523;28;20203;-96
2021/07/08 01:32:00;;;;;;;1.00;0.70;;;26.90;99.90;;;;;;5056922;28;20220;-95
2021/07/08 01:34:31;;;;;;;2.93;0.60;;;27.50;99.90;;;;;;5057413;28;20295;-95
2021/07/08 01:37:08;;;;;;;2.57;0.53;;;27.80;99.90;;;;;;5057642;28;20295;-96
2021/07/08 01:39:39;;;;;;;2.10;0.70;;;27.20;99.90;;;;;;5043557;28;20546;-96
2021/07/08 01:42:10;;;;;;;2.30;0.60;;;27.70;99.90;;;;;;5056916;28;20295;-94
2021/07/08 01:44:41;;;;;;;0.87;0.60;;;27.50;99.90;;;;;;5057407;28;20224;-95
2021/07/08 01:47:12;;;;;;;0.73;0.50;;;27.60;99.90;;;;;;4707125;28;9999863;-96
2021/07/08 01:49:44;;;;;;;1.17;0.60;;;27.70;99.90;;;;;;5056904;28;20857;-95
2021/07/08 01:52:17;;;;;;;0.60;0.60;;;26.40;99.90;;;;;;5051837;28;20201;-96
2021/07/08 01:54:48;;;;;;;1.87;0.70;;;26.50;99.90;;;;;;5050299;28;20212;-95
2021/07/08 01:57:19;;;;;;;1.00;0.50;;;27.10;99.90;;;;;;5057418;28;20250;-96
2021/07/08 01:59:51;;;;;;;0.80;0.50;;;27.40;99.90;;;;;;5057356;28;20224;-96
2021/07/08 02:02:23;;;;;;;1.67;0.90;;;27.60;99.90;;;;;;5060549;28;20216;-96
2021/07/08 02:04:53;;;;;;;1.73;0.73;;;28.10;99.90;;;;;;5061444;28;20202;-95
2021/07/08 02:07:26;;;;;;;0.87;0.60;;;27.90;99.90;;;;;;5059883;28;20259;-95
2021/07/08 02:09:57;;;;;;;0.90;0.63;;;28.00;99.90;;;;;;5063753;28;20231;-96
2021/07/08 02:12:29;;;;;;;0.97;0.60;;;28.20;99.90;;;;;;5072670;28;20195;-94
2021/07/08 02:15:00;;;;;;;0.70;0.60;;;27.10;99.90;;;;;;5065411;28;20268;-95
2021/07/08 02:17:32;;;;;;;1.13;0.60;;;27.30;99.90;;;;;;5068636;28;20207;-95
2021/07/08 02:20:05;;;;;;;1.40;0.70;;;27.10;99.90;;;;;;5045868;28;20200;-94
2021/07/08 02:22:41;;;;;;;1.03;0.60;;;26.90;99.90;;;;;;5059544;28;20212;-94
2021/07/08 02:25:17;;;;;;;0.83;0.60;;;27.20;99.90;;;;;;5060994;28;20276;-95
2021/07/08 02:27:48;;;;;;;1.90;0.70;;;27.30;99.90;;;;;;5040887;28;20235;-96
2021/07/08 02:30:23;;;;;;;0.90;0.50;;;27.70;99.90;;;;;;5063123;28;20212;-96
2021/07/08 02:33:00;;;;;;;0.80;0.50;;;27.70;99.90;;;;;;5057151;28;20212;-96
2021/07/08 02:35:32;;;;;;;1.47;0.50;;;27.40;99.90;;;;;;5057159;28;20303;-96
2021/07/08 02:38:06;;;;;;;1.50;0.60;;;26.70;99.90;;;;;;5057611;28;20281;-96
2021/07/08 02:40:41;;;;;;;1.23;0.73;;;25.80;99.90;;;;;;5040107;28;20748;-96
2021/07/08 02:43:12;;;;;;;1.27;0.80;;;24.70;99.90;;;;;;5058711;28;20286;-96
2021/07/08 02:45:45;;;;;;;1.90;0.60;;;24.00;99.90;;;;;;5040592;28;20216;-96
2021/07/08 02:48:18;;;;;;;2.20;0.70;;;23.40;99.90;;;;;;5064036;28;20268;-95
2021/07/08 02:50:52;;;;;;;0.90;0.80;;;22.70;99.90;;;;;;5076722;28;20216;-96
2021/07/08 02:53:25;;;;;;;3.03;0.90;;;22.40;99.90;;;;;;5077204;28;20256;-96
2021/07/08 02:55:56;;;;;;;1.20;0.80;;;22.10;99.90;;;;;;5061217;28;20677;-96
2021/07/08 02:58:29;;;;;;;2.57;0.80;;;21.80;99.90;;;;;;5058572;28;20228;-96
2021/07/08 03:01:00;;;;;;;2.27;0.73;;;21.70;99.90;;;;;;5056957;28;20204;-96
2021/07/08 03:03:31;;;;;;;1.63;0.67;;;21.50;99.90;;;;;;5057062;28;20208;-96
2021/07/08 03:06:03;;;;;;;0.80;0.70;;;21.30;99.90;;;;;;5057033;28;20267;-96
2021/07/08 03:08:37;;;;;;;0.97;0.60;;;21.30;99.90;;;;;;5057395;28;20232;-96
2021/07/08 03:11:08;;;;;;;0.73;0.63;;;21.20;99.90;;;;;;5036168;28;20205;-96
2021/07/08 03:13:38;;;;;;;2.50;0.70;;;21.00;99.90;;;;;;5037396;28;20262;-96
2021/07/08 03:16:10;;;;;;;1.13;0.60;;;20.90;99.90;;;;;;5037340;28;20561;-96
2021/07/08 03:18:42;;;;;;;1.37;0.77;;;20.80;99.90;;;;;;5037061;28;20310;-96
2021/07/08 03:21:19;;;;;;;0.97;0.73;;;20.50;99.90;;;;;;5037501;28;20620;-95
2021/07/08 03:23:53;;;;;;;1.10;0.77;;;20.30;99.90;;;;;;5037582;28;20673;-96
2021/07/08 03:26:24;;;;;;;0.90;0.80;;;20.30;99.90;;;;;;5048193;28;20222;-95
2021/07/08 03:28:59;;;;;;;2.70;1.00;;;20.20;99.90;;;;;;5059659;28;20262;-96
2021/07/08 03:31:30;;;;;;;1.00;0.83;;;20.10;99.90;;;;;;5058190;28;20203;-96
2021/07/08 03:34:01;;;;;;;1.27;0.97;;;20.10;99.90;;;;;;5057941;28;20213;-96
2021/07/08 03:36:33;;;;;;;2.00;0.93;;;20.10;99.90;;;;;;5058018;28;20681;-96
2021/07/08 03:39:06;;;;;;;2.10;1.00;;;19.90;99.90;;;;;;5056988;28;20208;-96
2021/07/08 03:41:39;;;;;;;1.10;1.00;;;19.80;99.90;;;;;;5055910;28;20299;-96
2021/07/08 03:44:10;;;;;;;2.17;1.00;;;19.80;99.90;;;;;;5057890;28;20200;-96
2021/07/08 03:46:41;;;;;;;1.00;0.90;;;19.70;99.90;;;;;;5057263;28;20208;-96
2021/07/08 03:49:17;;;;;;;1.63;0.73;;;19.50;99.90;;;;;;5055848;28;20228;-96
2021/07/08 03:51:47;;;;;;;1.63;0.80;;;19.40;99.90;;;;;;5055899;28;20287;-96
2021/07/08 03:54:22;;;;;;;0.87;0.80;;;19.30;99.90;;;;;;5056773;28;20338;-95
2021/07/08 03:56:54;;;;;;;1.33;0.80;;;19.20;99.90;;;;;;5055553;28;20775;-96
2021/07/08 03:59:26;;;;;;;2.33;0.70;;;19.10;99.90;;;;;;5055474;28;20205;-96
2021/07/08 04:01:57;;;;;;;3.27;1.17;;;19.00;99.90;;;;;;5054720;28;20291;-96
2021/07/08 04:04:29;;;;;;;1.80;0.80;;;18.90;99.90;;;;;;5055906;28;20212;-96
2021/07/08 04:07:01;;;;;;;0.90;0.80;;;18.80;99.90;;;;;;5055870;28;20216;-96
2021/07/08 04:09:34;;;;;;;3.63;0.90;;;18.70;99.90;;;;;;5057389;28;20249;-96
2021/07/08 04:12:07;;;;;;;0.80;0.80;;;18.60;99.90;;;;;;5057037;28;20204;-96
2021/07/08 04:14:39;;;;;;;1.00;0.77;;;18.50;99.90;;;;;;5041432;28;20207;-96
2021/07/08 04:17:12;;;;;;;0.93;0.60;;;18.40;99.90;;;;;;5057379;28;20228;-96
2021/07/08 04:19:45;;;;;;;0.87;0.80;;;18.30;99.90;;;;;;5040024;28;20204;-96
2021/07/08 04:22:21;;;;;;;0.60;0.60;;;18.30;99.90;;;;;;5057589;28;20199;-96
2021/07/08 04:24:54;;;;;;;0.80;0.70;;;18.10;99.90;;;;;;5077991;28;20208;-96
2021/07/08 04:27:26;;;;;;;1.47;0.80;;;18.10;99.90;;;;;;5052824;28;20235;-96
2021/07/08 04:29:57;;;;;;;1.93;0.70;;;18.00;99.90;;;;;;5056667;28;20260;-96
2021/07/08 04:32:30;;;;;;;0.90;0.70;;;18.00;99.90;;;;;;5049261;28;20295;-93
2021/07/08 04:35:01;;;;;;;0.70;0.60;;;18.00;99.90;;;;;;5080478;28;20271;-95
2021/07/08 04:37:39;;;;;;;0.70;0.70;;;17.90;99.90;;;;;;5071401;28;20215;-94
2021/07/08 04:40:16;;;;;;;0.87;0.60;;;17.90;99.90;;;;;;5057996;28;20239;-93
2021/07/08 04:42:49;;;;;;;1.37;0.90;;;17.90;99.90;;;;;;5043647;28;20222;-94
2021/07/08 04:45:24;;;;;;;1.73;0.80;;;17.90;99.90;;;;;;5082135;28;20208;-93
2021/07/08 04:47:55;;;;;;;1.97;0.83;;;18.00;99.90;;;;;;5083724;28;20286;-93
2021/07/08 04:50:27;;;;;;;0.90;0.70;;;18.00;99.90;;;;;;5082958;28;20640;-94
2021/07/08 04:52:58;;;;;;;0.53;0.43;;;17.90;99.90;;;;;;5078103;28;20291;-95
2021/07/08 04:55:36;;;;;;;0.53;0.53;;;18.00;99.90;;;;;;5060025;28;20208;-95
2021/07/08 04:58:07;;;;;;;0.63;0.53;;;18.00;99.90;;;;;;5076614;28;20283;-95
2021/07/08 05:00:38;;;;;;;0.70;0.53;;;18.00;99.90;;;;;;5080785;28;20225;-92
2021/07/08 05:03:09;;;;;;;6.17;0.70;;;18.00;99.90;;;;;;5083085;28;20218;-93
2021/07/08 05:05:41;;;;;;;1.47;1.00;;;18.00;99.90;;;;;;5090576;28;20200;-95
2021/07/08 05:08:12;;;;;;;0.80;0.63;;;17.80;99.90;;;;;;5079507;28;20211;-94
2021/07/08 05:10:45;;;;;;;3.30;0.60;;;17.80;99.90;;;;;;5061565;28;20220;-92
2021/07/08 05:13:17;;;;;;;1.13;0.80;;;17.80;99.90;;;;;;5063628;28;20185;-96
2021/07/08 05:15:51;;;;;;;1.10;0.67;;;17.70;99.90;;;;;;5105157;22;20248;-94
2021/07/08 05:18:22;;;;;;;1.17;0.70;;;17.70;99.90;;;;;;5057012;28;20537;-93
2021/07/08 05:20:53;;;;;;;2.23;0.60;;;17.80;99.90;;;;;;5022280;28;20292;-94
2021/07/08 05:23:29;;;;;;;1.37;0.83;;;17.70;99.90;;;;;;5033391;28;20220;-94
2021/07/08 05:26:06;;;;;;;4.10;0.80;;;17.60;99.90;;;;;;5043440;28;20271;-95
2021/07/08 05:28:37;;;;;;;2.53;0.90;;;17.60;99.90;;;;;;5017900;28;20229;-94
2021/07/08 05:31:09;;;;;;;1.17;0.80;;;17.70;99.90;;;;;;5017428;28;20237;-94
2021/07/08 05:33:41;;;;;;;3.07;0.83;;;17.70;99.90;;;;;;5017949;28;20296;-94
2021/07/08 05:36:12;;;;;;;1.60;0.90;;;17.70;99.90;;;;;;5032061;28;20670;-94
2021/07/08 05:38:44;;;;;;;2.53;0.93;;;17.70;99.90;;;;;;5037888;28;20257;-93
2021/07/08 05:41:20;;;;;;;1.40;0.73;;;17.60;99.90;;;;;;5037162;28;20645;-94
2021/07/08 05:43:51;;;;;;;1.07;0.70;;;17.60;99.90;;;;;;5037005;28;20273;-92
2021/07/08 05:46:23;;;;;;;1.47;1.00;;;17.60;99.90;;;;;;5039112;28;20245;-93
2021/07/08 05:48:54;;;;;;;1.40;0.70;;;17.50;99.90;;;;;;5029685;28;20300;-95
2021/07/08 05:51:25;;;;;;;3.00;0.87;;;17.40;99.90;;;;;;5018641;28;20297;-94
2021/07/08 05:53:59;;;;;;;1.43;0.90;;;17.40;99.90;;;;;;5032206;28;20236;-93
2021/07/08 05:56:32;;;;;;;1.20;0.93;;;17.40;99.90;;;;;;5037675;28;20205;-93
2021/07/08 05:59:03;;;;;;;1.10;0.93;;;17.30;99.90;;;;;;5054982;28;20200;-93
2021/07/08 06:01:34;;;;;;;2.07;0.90;;;17.20;99.90;;;;;;5038414;28;20295;-94
2021/07/08 06:04:06;;;;;;;3.03;1.07;;;17.10;99.90;;;;;;5056989;28;20208;-94
2021/07/08 06:06:37;;;;;;;2.67;1.20;;;17.10;99.90;;;;;;5058101;28;20210;-94
2021/07/08 06:09:08;;;;;;;1.43;1.00;;;17.00;99.90;;;;;;5055904;28;20715;-94
2021/07/08 06:11:42;;;;;;;2.90;0.97;;;17.00;99.90;;;;;;5036378;28;20236;-94
2021/07/08 06:14:14;;;;;;;2.03;1.07;;;16.90;99.90;;;;;;5036412;28;20213;-94
2021/07/08 06:16:45;;;;;;;1.20;0.93;;;16.90;99.90;;;;;;5031691;28;20275;-94
2021/07/08 06:19:16;;;;;;;2.10;1.10;;;16.80;99.90;;;;;;5036996;28;20197;-94
2021/07/08 06:21:48;;;;;;;5.70;1.00;;;16.80;99.90;;;;;;5037012;28;20204;-94
2021/07/08 06:24:20;;;;;;;3.87;0.97;;;16.80;99.90;;;;;;5041166;28;20287;-94
2021/07/08 06:26:55;;;;;;;2.07;1.00;;;16.80;99.90;;;;;;5057625;28;20302;-94
2021/07/08 06:29:26;;;;;;;2.97;1.03;;;16.70;99.90;;;;;;5042350;28;20211;-93
2021/07/08 06:31:58;;;;;;;3.33;1.13;;;16.60;99.90;;;;;;5042264;28;20212;-93
2021/07/08 06:34:29;;;;;;;1.40;0.90;;;16.50;99.90;;;;;;5020004;28;20205;-94
2021/07/08 06:37:00;;;;;;;2.53;1.10;;;16.50;99.90;;;;;;5037374;28;20232;-94
2021/07/08 06:39:31;;;;;;;2.43;1.00;;;16.50;99.90;;;;;;5038319;28;20232;-93
2021/07/08 06:42:04;;;;;;;6.97;1.20;;;16.40;99.90;;;;;;5037086;28;20773;-94
2021/07/08 06:44:36;;;;;;;2.50;1.07;;;16.30;99.90;;;;;;5037791;28;20264;-94
2021/07/08 06:47:10;;;;;;;4.93;1.60;;;16.30;99.90;;;;;;5042412;28;20292;-94
2021/07/08 06:49:41;;;;;;;5.67;1.00;;;16.10;99.90;;;;;;5020127;28;20241;-95
2021/07/08 06:52:12;;;;;;;4.93;1.47;;;16.00;99.90;;;;;;5037031;28;20209;-93
2021/07/08 06:54:45;;;;;;;2.80;1.00;;;16.00;99.90;;;;;;5020492;28;20295;-95
2021/07/08 06:57:19;;;;;;;3.30;1.47;;;16.00;99.90;;;;;;5037674;28;20295;-93
2021/07/08 06:59:50;;;;;;;2.73;1.20;;;16.00;99.90;;;;;;5038235;28;20216;-94
2021/07/08 07:02:22;;;;;;;3.60;1.10;;;16.10;99.90;;;;;;5048746;28;20213;-94
2021/07/08 07:04:53;;;;;;;4.47;2.07;;;16.10;99.90;;;;;;5037846;28;20272;-94
2021/07/08 07:07:24;;;;;;;6.33;1.77;;;16.10;99.90;;;;;;5039254;28;20209;-94
2021/07/08 07:09:55;;;;;;;3.93;1.17;;;16.00;99.90;;;;;;5022291;28;20221;-95
2021/07/08 07:12:28;;;;;;;2.40;1.10;;;16.00;99.90;;;;;;5016657;28;20290;-94
2021/07/08 07:14:59;;;;;;;3.53;1.13;;;15.90;99.90;;;;;;5016305;28;20276;-94
2021/07/08 07:17:33;;;;;;;4.60;1.53;;;15.90;99.90;;;;;;5000644;28;20272;-93
2021/07/08 07:20:06;;;;;;;3.40;1.33;;;15.90;99.90;;;;;;4999850;28;20730;-94
2021/07/08 07:22:39;;;;;;;2.50;1.30;;;15.90;99.90;;;;;;5037271;28;20213;-94
2021/07/08 07:25:11;;;;;;;1.90;1.37;;;15.80;99.90;;;;;;5037056;28;20219;-94
2021/07/08 07:27:48;;;;;;;3.90;1.43;;;15.80;99.90;;;;;;5035966;28;20200;-94
2021/07/08 07:30:20;;;;;;;1.07;0.83;;;15.80;99.90;;;;;;5036372;28;20311;-94
2021/07/08 07:32:51;;;;;;;4.63;1.37;;;15.80;99.90;;;;;;5056152;28;20213;-94
2021/07/08 07:35:25;;;;;;;3.63;1.60;;;15.80;99.90;;;;;;5056744;28;20260;-93
2021/07/08 07:37:56;;;;;;;3.50;1.50;;;15.70;99.90;;;;;;5037837;28;20201;-93
2021/07/08 07:40:27;;;;;;;3.33;1.10;;;15.80;99.90;;;;;;5048445;28;20197;-94
2021/07/08 07:43:02;;;;;;;6.87;1.63;;;15.70;99.90;;;;;;5042698;28;20324;-93
2021/07/08 07:45:33;;;;;;;4.13;1.60;;;15.70;99.90;;;;;;5037212;28;20216;-93
2021/07/08 07:48:05;;;;;;;1.53;1.00;;;15.60;99.90;;;;;;5036835;28;20266;-94
2021/07/08 07:50:36;;;;;;;4.93;1.13;;;15.60;99.90;;;;;;4999064;28;20242;-94
2021/07/08 07:53:08;;;;;;;5.40;1.17;;;15.50;99.90;;;;;;5015602;28;20213;-95
2021/07/08 07:55:38;;;;;;;3.40;1.30;;;15.40;99.90;;;;;;5015579;28;20268;-94
2021/07/08 07:58:12;;;;;;;4.27;1.30;;;15.40;99.90;;;;;;5021264;28;20201;-94
2021/07/08 08:00:44;;;;;;;2.83;1.70;;;15.30;99.90;;;;;;5018574;28;20232;-94
2021/07/08 08:03:15;;;;;;;2.97;1.37;;;15.20;99.90;;;;;;5039513;28;20653;-95
2021/07/08 08:08:27;;;;;;;4.53;1.43;;;15.20;99.90;;;;;;5024206;28;20222;-95
2021/07/08 08:08:46;;;;;;;4.17;1.70;;;15.20;99.90;;;;;;5055015;28;20189;-95
2021/07/08 08:11:21;;;;;;;5.03;1.60;;;15.10;99.90;;;;;;5047515;28;20251;-95
2021/07/08 08:13:56;;;;;;;5.63;1.47;;;15.10;99.90;;;;;;5048429;28;20216;-94
2021/07/08 08:16:28;;;;;;;2.90;1.30;;;15.10;99.90;;;;;;5048676;28;20208;-95
2021/07/08 08:19:00;;;;;;;5.50;1.40;;;15.20;99.90;;;;;;5032520;28;20227;-94
2021/07/08 08:21:31;;;;;;;3.33;1.37;;;15.20;99.90;;;;;;5020661;28;20217;-94
2021/07/08 08:24:02;;;;;;;3.73;1.43;;;15.20;99.90;;;;;;5021165;28;20750;-94
2021/07/08 08:26:34;;;;;;;3.33;1.60;;;15.20;99.90;;;;;;5042960;28;20197;-94
2021/07/08 08:29:07;;;;;;;4.97;1.40;;;15.20;99.90;;;;;;5038967;28;20217;-95
2021/07/08 08:31:40;;;;;;;3.53;1.40;;;15.20;99.90;;;;;;5034310;28;20300;-95
2021/07/08 08:34:11;;;;;;;4.70;1.20;;;15.10;99.90;;;;;;5018439;28;20205;-94
2021/07/08 08:36:47;;;;;;;4.80;1.50;;;15.10;99.90;;;;;;5018300;28;20243;-94
2021/07/08 08:39:18;;;;;;;5.07;1.60;;;15.10;99.90;;;;;;5034919;28;20205;-94
2021/07/08 08:41:49;;;;;;;5.03;1.30;;;15.00;99.90;;;;;;5034222;28;20235;-94
2021/07/08 08:44:22;;;;;;;3.20;1.30;;;15.10;99.90;;;;;;5034888;28;20278;-94
2021/07/08 08:46:53;;;;;;;4.00;1.30;;;15.10;99.90;;;;;;5035203;28;20217;-94
2021/07/08 08:49:25;;;;;;;3.00;1.30;;;15.00;99.90;;;;;;5034923;28;20209;-93
2021/07/08 08:51:56;;;;;;;3.07;1.37;;;14.90;99.90;;;;;;5034375;28;20308;-94
2021/07/08 08:54:27;;;;;;;2.13;1.43;;;14.80;99.90;;;;;;5038313;28;20297;-93
2021/07/08 08:56:58;;;;;;;3.33;1.53;;;14.70;99.90;;;;;;5034966;28;20645;-93
2021/07/08 08:59:32;;;;;;;2.67;1.50;;;14.60;99.90;;;;;;5036158;28;20247;-93
2021/07/08 09:02:16;;;;;;;3.80;1.80;;;14.50;99.90;;;;;;5035579;28;20209;-93
2021/07/08 09:04:48;;;;;;;4.70;1.30;;;14.50;99.90;;;;;;5020669;28;20213;-93
2021/07/08 09:07:23;;;;;;;6.47;1.40;;;14.50;99.90;;;;;;5053216;28;20193;-93
2021/07/08 09:09:58;;;;;;;4.37;1.47;;;14.40;99.90;;;;;;5054491;28;20260;-96
2021/07/08 09:12:29;;;;;;;3.83;1.57;;;14.50;99.90;;;;;;5053589;28;20233;-94
2021/07/08 09:15:20;;;;;;;4.17;1.53;;;14.40;99.90;;;;;;5036653;28;20240;-95
2021/07/08 09:17:52;;;;;;;2.70;1.30;;;14.50;99.90;;;;;;5040459;28;20209;-93
2021/07/08 09:20:24;;;;;;;3.83;1.33;;;14.50;99.90;;;;;;5044636;28;20212;-93
2021/07/08 09:23:10;;;;;;;4.50;1.90;;;14.50;99.90;;;;;;5043805;28;20208;-93
2021/07/08 09:25:41;;;;;;;4.93;1.50;;;14.40;99.90;;;;;;5041057;28;20296;-93
2021/07/08 09:28:15;;;;;;;5.17;2.03;;;14.40;99.90;;;;;;5039702;28;20220;-94
2021/07/08 09:31:03;;;;;;;5.47;1.63;;;14.40;99.90;;;;;;5021543;28;20239;-93
2021/07/08 09:33:40;;;;;;;2.83;1.57;;;14.40;99.90;;;;;;5038288;28;20288;-93
2021/07/08 09:36:14;;;;;;;5.27;1.50;;;14.30;99.90;;;;;;5038181;28;20304;-93
2021/07/08 09:38:58;;;;;;;4.47;1.97;;;14.30;99.90;;;;;;5038611;28;20220;-94
2021/07/08 09:41:29;;;;;;;3.80;1.80;;;14.20;99.90;;;;;;5037862;28;20236;-93
2021/07/08 09:44:01;;;;;;;7.23;1.90;;;14.20;99.90;;;;;;5021110;28;20228;-94
2021/07/08 09:46:39;;;;;;;2.80;1.57;;;14.10;99.90;;;;;;5038475;28;20248;-94
2021/07/08 09:49:11;;;;;;;5.40;1.63;;;14.10;99.90;;;;;;5021159;28;20209;-94
2021/07/08 09:51:44;;;;;;;4.40;1.60;;;14.00;99.90;;;;;;5066826;28;20227;-94
2021/07/08 09:54:21;;;;;;;5.73;1.60;;;13.90;99.90;;;;;;5078193;28;20192;-95
2021/07/08 09:56:53;;;;;;;6.57;1.50;;;13.90;99.90;;;;;;5077299;28;20211;-95
2021/07/08 09:59:36;;;;;;;5.70;1.60;;;13.90;99.90;;;;;;5062003;28;20204;-94
2021/07/08 10:02:10;;;;;;;5.53;1.50;;;14.00;99.90;;;;;;5063538;28;20208;-95
2021/07/08 10:04:41;;;;;;;7.27;1.73;;;14.00;99.90;;;;;;5059355;28;20212;-96
2021/07/08 10:07:12;;;;;;;3.77;1.90;;;13.90;99.90;;;;;;5059481;28;20737;-95
2021/07/08 10:09:45;;;;;;;4.20;1.60;;;13.90;99.90;;;;;;5060404;28;20236;-94
2021/07/08 10:12:16;;;;;;;5.27;2.20;;;13.80;99.90;;;;;;5045827;28;20300;-95
2021/07/08 10:14:50;;;;;;;3.80;1.70;;;13.70;99.90;;;;;;5045348;28;20295;-95
2021/07/08 10:17:26;;;;;;;3.33;2.00;;;13.70;99.90;;;;;;5053986;28;20241;-96
2021/07/08 10:19:58;;;;;;;4.33;1.70;;;13.60;99.90;;;;;;5041425;28;20213;-96
2021/07/08 10:22:30;;;;;;;3.60;1.40;;;13.60;99.90;;;;;;5030316;28;20228;-95
2021/07/08 10:25:01;;;;;;;6.47;2.17;;;13.70;99.90;;;;;;5044653;28;20209;-93
2021/07/08 10:27:33;;;;;;;4.07;1.90;;;13.60;99.90;;;;;;5049822;28;20197;-96
2021/07/08 10:30:06;;;;;;;4.77;1.50;;;13.60;99.90;;;;;;5057427;28;20212;-95
2021/07/08 10:32:40;;;;;;;7.03;2.10;;;13.60;99.90;;;;;;5058217;28;20232;-95
2021/07/08 10:35:12;;;;;;;4.90;1.90;;;13.60;99.90;;;;;;5058015;28;20610;-95
2021/07/08 10:37:45;;;;;;;6.13;2.40;;;13.60;99.90;;;;;;5058352;28;20267;-95
2021/07/08 10:40:28;;;;;;;5.10;1.90;;;13.60;99.90;;;;;;5056149;28;20216;-95
2021/07/08 10:43:13;;;;;;;7.30;2.10;;;13.70;99.90;;;;;;5032593;28;20212;-95
2021/07/08 10:45:46;;;;;;;3.63;1.90;;;13.70;99.90;;;;;;5037185;28;20344;-96
2021/07/08 10:48:23;;;;;;;4.07;2.13;;;13.70;99.90;;;;;;5037646;28;20209;-95
2021/07/08 10:50:55;;;;;;;4.33;1.73;;;13.70;99.90;;;;;;5036393;28;20740;-94
2021/07/08 10:53:28;;;;;;;6.97;1.80;;;13.60;99.90;;;;;;5036476;28;20335;-94
2021/07/08 10:56:01;;;;;;;4.07;1.90;;;13.60;99.90;;;;;;5036702;28;20211;-94
2021/07/08 10:58:49;;;;;;;4.07;1.80;;;13.60;99.90;;;;;;5041676;28;20304;-94
2021/07/08 11:01:45;;;;;;;4.13;2.20;;;13.50;99.90;;;;;;5036921;28;20220;-95
2021/07/08 11:04:39;;;;;;;6.50;1.87;;;13.50;99.90;;;;;;5036315;28;20205;-95
2021/07/08 11:07:19;;;;;;;3.63;2.10;;;13.40;99.90;;;;;;5036476;28;20255;-95
2021/07/08 11:10:02;;;;;;;5.93;1.70;;;13.40;99.90;;;;;;5035897;28;20303;-95
2021/07/08 11:12:34;;;;;;;4.63;2.00;;;13.40;99.90;;;;;;5036001;28;20240;-95
2021/07/08 11:15:09;;;;;;;6.50;1.97;;;13.30;99.90;;;;;;5035842;28;20208;-94
2021/07/08 11:17:42;;;;;;;5.47;2.17;;;13.30;99.90;;;;;;5036166;28;20657;-95
2021/07/08 11:20:34;;;;;;;7.83;2.20;;;13.30;99.90;;;;;;5035532;28;20213;-95
2021/07/08 11:23:39;;;;;;;6.43;2.27;;;13.30;99.90;;;;;;5020104;28;20220;-94
2021/07/08 11:26:10;;;;;;;5.40;2.53;;;13.20;99.90;;;;;;5030186;28;20291;-94
2021/07/08 11:28:42;;;;;;;6.00;2.30;;;13.20;99.90;;;;;;5036344;28;20681;-95
2021/07/08 11:31:13;;;;;;;6.10;1.77;;;13.10;99.90;;;;;;5035340;28;20670;-94
2021/07/08 11:33:45;;;;;;;5.93;2.27;;;13.10;99.90;;;;;;5018632;28;20240;-94
2021/07/08 11:36:24;;;;;;;5.97;2.47;;;13.00;99.90;;;;;;5036184;28;20288;-95
2021/07/08 11:38:57;;;;;;;3.87;2.17;;;13.00;99.90;;;;;;5035824;28;20832;-94
2021/07/08 11:41:29;;;;;;;7.47;2.03;;;13.00;99.90;;;;;;5016961;28;20666;-94
2021/07/08 11:44:04;;;;;;;4.47;1.87;;;13.00;99.90;;;;;;5035360;28;20212;-94
2021/07/08 11:46:35;;;;;;;6.20;2.30;;;13.00;99.90;;;;;;5035492;28;20220;-94
2021/07/08 11:49:06;;;;;;;5.33;2.00;;;13.00;99.90;;;;;;5034355;28;20213;-94
2021/07/08 11:51:42;;;;;;;5.93;2.10;;;13.10;99.90;;;;;;5047315;28;20572;-94
2021/07/08 11:54:14;;;;;;;4.67;2.03;;;13.00;99.90;;;;;;5054167;28;20236;-93
2021/07/08 11:56:45;;;;;;;9.67;2.23;;;13.00;99.90;;;;;;5055572;28;20215;-93
2021/07/08 11:59:16;;;;;;;6.97;2.23;;;13.10;99.90;;;;;;5038441;28;20702;-94
2021/07/08 12:01:47;;;;;;;5.90;1.80;;;13.00;99.90;;;;;;5054657;28;20287;-94
2021/07/08 12:04:23;;;;;;;4.30;2.10;;;12.90;99.90;;;;;;5059257;28;20616;-94
2021/07/08 12:07:05;;;;;;;5.10;2.10;;;12.90;99.90;;;;;;5058402;28;20219;-95
2021/07/08 12:09:39;;;;;;;7.93;2.47;;;12.90;99.90;;;;;;5059368;28;20676;-94
2021/07/08 12:12:10;;;;;;;5.77;2.20;;;12.80;99.90;;;;;;5055980;28;20204;-95
2021/07/08 12:14:44;;;;;;;5.33;2.23;;;12.70;99.90;;;;;;5056227;28;20205;-94
2021/07/08 12:17:15;;;;;;;4.50;2.27;;;12.70;99.90;;;;;;5054129;28;20302;-93
2021/07/08 12:20:11;;;;;;;7.80;2.40;;;12.70;99.90;;;;;;5028287;28;20570;-93
2021/07/08 12:23:02;;;;;;;6.43;2.83;;;12.70;99.90;;;;;;5037960;28;20276;-93
2021/07/08 12:25:34;;;;;;;7.23;2.43;;;12.80;99.90;;;;;;5036580;28;20293;-93
2021/07/08 12:28:05;;;;;;;5.83;2.13;;;12.80;99.90;;;;;;5036000;28;20713;-95
2021/07/08 12:30:37;;;;;;;7.57;2.20;;;12.90;99.90;;;;;;5038203;28;20204;-94
2021/07/08 12:33:14;;;;;;;4.20;1.97;;;13.00;99.90;;;;;;5037449;28;20239;-94
2021/07/08 12:35:48;;;;;;;6.43;2.20;;;13.10;99.90;;;;;;5055258;28;20591;-95
2021/07/08 12:38:22;;;;;;;8.33;2.13;;;13.20;99.90;;;;;;5036568;28;20213;-94
2021/07/08 12:41:01;;;;;;;5.70;2.30;;;13.20;99.90;;;;;;5034490;28;20227;-94
2021/07/08 12:43:33;;;;;;;5.23;1.97;;;13.30;99.90;;;;;;5035455;28;20300;-94
2021/07/08 12:46:11;;;;;;;4.23;2.20;;;13.50;99.90;;;;;;5035117;28;20540;-93
2021/07/08 12:48:44;;;;;;;4.63;2.33;;;13.50;99.90;;;;;;5035109;28;20322;-95
2021/07/08 12:51:15;;;;;;;4.07;1.70;;;13.60;99.90;;;;;;5034500;28;20217;-93
2021/07/08 12:53:49;;;;;;;6.10;2.40;;;13.70;99.90;;;;;;5038861;28;20236;-94
2021/07/08 12:56:22;;;;;;;6.40;2.67;;;13.60;99.90;;;;;;5038189;28;20217;-94
2021/07/08 12:58:59;;;;;;;5.70;2.13;;;13.60;99.90;;;;;;5040151;28;20652;-94
2021/07/08 13:01:31;;;;;;;4.90;2.00;;;13.60;99.90;;;;;;5038966;28;20200;-94
2021/07/08 13:04:03;;;;;;;4.07;1.93;;;13.50;99.90;;;;;;5039370;28;20212;-95
2021/07/08 13:06:35;;;;;;;5.70;2.30;;;13.70;99.90;;;;;;5038843;28;20330;-95
2021/07/08 13:09:20;;;;;;;5.80;2.00;;;13.70;99.90;;;;;;5014623;28;20221;-94
2021/07/08 13:11:52;;;;;;;4.47;2.33;;;13.70;99.90;;;;;;5018001;28;20288;-94
2021/07/08 13:14:24;;;;;;;5.40;2.20;;;13.80;99.90;;;;;;5019667;28;20261;-95
2021/07/08 13:17:09;;;;;;;7.07;2.30;;;13.90;99.90;;;;;;5036867;28;20302;-95
2021/07/08 13:19:43;;;;;;;3.63;2.50;;;14.00;99.90;;;;;;5021118;28;20308;-95